sensor_id;sensor_type;location;lat;lon;timestamp;P1;durP1;ratioP1;P2;durP2;ratioP2
72379;SDS011;60354;47.798;12.472;2022-11-20T00:01:14;2.85;;;1.80;;
72379;SDS011;60354;47.798;12.472;2022-11-20T00:03:42;5.03;;;1.98;;
72379;SDS011;60354;47.798;12.472;2022-11-20T00:06:09;3.08;;;1.83;;
72379;SDS011;60354;47.798;12.472;2022-11-20T00:08:36;4.10;;;2.00;;
72379;SDS011;60354;47.798;12.472;2022-11-20T00:11:03;2.33;;;1.60;;
72379;SDS011;60354;47.798;12.472;2022-11-20T00:13:36;4.50;;;1.80;;
72379;SDS011;60354;47.798;12.472;2022-11-20T00:16:02;2.90;;;1.65;;
72379;SDS011;60354;47.798;12.472;2022-11-20T00:18:29;3.13;;;1.50;;
72379;SDS011;60354;47.798;12.472;2022-11-20T00:21:12;3.00;;;1.63;;
72379;SDS011;60354;47.798;12.472;2022-11-20T00:26:09;4.32;;;1.40;;
72379;SDS011;60354;47.798;12.472;2022-11-20T00:28:36;3.60;;;1.55;;
72379;SDS011;60354;47.798;12.472;2022-11-20T00:31:06;2.17;;;1.10;;
72379;SDS011;60354;47.798;12.472;2022-11-20T00:33:33;1.67;;;1.10;;
72379;SDS011;60354;47.798;12.472;2022-11-20T00:36:03;2.83;;;1.35;;
72379;SDS011;60354;47.798;12.472;2022-11-20T00:38:30;2.47;;;1.20;;
72379;SDS011;60354;47.798;12.472;2022-11-20T00:41:00;2.53;;;1.27;;
72379;SDS011;60354;47.798;12.472;2022-11-20T00:43:27;1.98;;;1.13;;
72379;SDS011;60354;47.798;12.472;2022-11-20T00:45:56;2.08;;;1.15;;
72379;SDS011;60354;47.798;12.472;2022-11-20T00:48:27;1.98;;;1.08;;
72379;SDS011;60354;47.798;12.472;2022-11-20T00:50:52;2.10;;;1.20;;
72379;SDS011;60354;47.798;12.472;2022-11-20T00:53:18;1.70;;;1.10;;
72379;SDS011;60354;47.798;12.472;2022-11-20T00:55:54;3.28;;;1.27;;
72379;SDS011;60354;47.798;12.472;2022-11-20T00:58:22;2.95;;;1.10;;
72379;SDS011;60354;47.798;12.472;2022-11-20T01:00:49;4.65;;;1.30;;
72379;SDS011;60354;47.798;12.472;2022-11-20T01:03:15;2.05;;;1.10;;
72379;SDS011;60354;47.798;12.472;2022-11-20T01:05:42;1.38;;;1.10;;
72379;SDS011;60354;47.798;12.472;2022-11-20T01:08:08;1.35;;;0.93;;
72379;SDS011;60354;47.798;12.472;2022-11-20T01:10:33;1.98;;;1.05;;
72379;SDS011;60354;47.798;12.472;2022-11-20T01:12:59;3.53;;;1.27;;
72379;SDS011;60354;47.798;12.472;2022-11-20T01:15:43;2.55;;;1.20;;
72379;SDS011;60354;47.798;12.472;2022-11-20T01:18:08;2.50;;;1.35;;
72379;SDS011;60354;47.798;12.472;2022-11-20T01:20:34;3.30;;;0.90;;
72379;SDS011;60354;47.798;12.472;2022-11-20T01:23:01;3.53;;;1.30;;
72379;SDS011;60354;47.798;12.472;2022-11-20T01:25:28;1.65;;;1.10;;
72379;SDS011;60354;47.798;12.472;2022-11-20T01:27:53;1.95;;;0.90;;
72379;SDS011;60354;47.798;12.472;2022-11-20T01:30:19;1.88;;;0.90;;
72379;SDS011;60354;47.798;12.472;2022-11-20T01:32:44;1.70;;;1.00;;
72379;SDS011;60354;47.798;12.472;2022-11-20T01:35:10;1.48;;;1.10;;
72379;SDS011;60354;47.798;12.472;2022-11-20T01:37:35;2.22;;;1.20;;
72379;SDS011;60354;47.798;12.472;2022-11-20T01:40:01;2.17;;;1.20;;
72379;SDS011;60354;47.798;12.472;2022-11-20T01:42:26;2.60;;;1.15;;
72379;SDS011;60354;47.798;12.472;2022-11-20T01:48:14;2.13;;;1.10;;
72379;SDS011;60354;47.798;12.472;2022-11-20T01:50:39;1.15;;;1.00;;
72379;SDS011;60354;47.798;12.472;2022-11-20T01:53:08;2.88;;;1.00;;
72379;SDS011;60354;47.798;12.472;2022-11-20T01:55:38;1.77;;;1.10;;
72379;SDS011;60354;47.798;12.472;2022-11-20T01:58:08;4.53;;;1.20;;
72379;SDS011;60354;47.798;12.472;2022-11-20T02:00:34;1.95;;;1.10;;
72379;SDS011;60354;47.798;12.472;2022-11-20T02:03:01;2.10;;;1.00;;
72379;SDS011;60354;47.798;12.472;2022-11-20T02:08:05;1.92;;;1.00;;
72379;SDS011;60354;47.798;12.472;2022-11-20T02:10:32;3.38;;;1.10;;
72379;SDS011;60354;47.798;12.472;2022-11-20T02:12:58;2.75;;;1.10;;
72379;SDS011;60354;47.798;12.472;2022-11-20T02:15:42;3.08;;;1.00;;
72379;SDS011;60354;47.798;12.472;2022-11-20T02:18:09;3.85;;;1.20;;
72379;SDS011;60354;47.798;12.472;2022-11-20T02:20:36;1.50;;;1.10;;
72379;SDS011;60354;47.798;12.472;2022-11-20T02:25:28;1.25;;;1.08;;
72379;SDS011;60354;47.798;12.472;2022-11-20T02:27:56;2.25;;;1.10;;
72379;SDS011;60354;47.798;12.472;2022-11-20T02:30:21;1.63;;;1.05;;
72379;SDS011;60354;47.798;12.472;2022-11-20T02:32:47;1.77;;;1.20;;
72379;SDS011;60354;47.798;12.472;2022-11-20T02:37:44;2.17;;;1.35;;
72379;SDS011;60354;47.798;12.472;2022-11-20T02:40:12;2.72;;;1.45;;
72379;SDS011;60354;47.798;12.472;2022-11-20T02:42:38;3.40;;;1.48;;
72379;SDS011;60354;47.798;12.472;2022-11-20T02:45:04;1.95;;;1.40;;
72379;SDS011;60354;47.798;12.472;2022-11-20T02:47:30;3.85;;;1.60;;
72379;SDS011;60354;47.798;12.472;2022-11-20T02:49:56;2.72;;;1.40;;
72379;SDS011;60354;47.798;12.472;2022-11-20T02:52:22;2.40;;;1.58;;
72379;SDS011;60354;47.798;12.472;2022-11-20T02:54:48;2.75;;;1.70;;
72379;SDS011;60354;47.798;12.472;2022-11-20T02:57:13;1.65;;;1.42;;
72379;SDS011;60354;47.798;12.472;2022-11-20T02:59:38;2.95;;;1.70;;
72379;SDS011;60354;47.798;12.472;2022-11-20T03:02:04;2.35;;;1.70;;
72379;SDS011;60354;47.798;12.472;2022-11-20T03:04:30;2.70;;;1.52;;
72379;SDS011;60354;47.798;12.472;2022-11-20T03:06:56;3.30;;;1.60;;
72379;SDS011;60354;47.798;12.472;2022-11-20T03:09:21;2.20;;;1.50;;
72379;SDS011;60354;47.798;12.472;2022-11-20T03:11:47;1.75;;;1.40;;
72379;SDS011;60354;47.798;12.472;2022-11-20T03:14:12;1.95;;;1.40;;
72379;SDS011;60354;47.798;12.472;2022-11-20T03:16:38;2.30;;;1.60;;
72379;SDS011;60354;47.798;12.472;2022-11-20T03:19:03;3.22;;;1.70;;
72379;SDS011;60354;47.798;12.472;2022-11-20T03:21:29;3.10;;;1.65;;
72379;SDS011;60354;47.798;12.472;2022-11-20T03:23:55;2.20;;;1.40;;
72379;SDS011;60354;47.798;12.472;2022-11-20T03:26:22;3.30;;;1.60;;
72379;SDS011;60354;47.798;12.472;2022-11-20T03:28:50;2.55;;;1.40;;
72379;SDS011;60354;47.798;12.472;2022-11-20T03:31:21;2.22;;;1.30;;
72379;SDS011;60354;47.798;12.472;2022-11-20T03:33:48;1.85;;;1.15;;
72379;SDS011;60354;47.798;12.472;2022-11-20T03:36:15;1.73;;;1.23;;
72379;SDS011;60354;47.798;12.472;2022-11-20T03:38:41;1.33;;;1.10;;
72379;SDS011;60354;47.798;12.472;2022-11-20T03:41:08;1.92;;;1.20;;
72379;SDS011;60354;47.798;12.472;2022-11-20T03:43:38;1.80;;;1.20;;
72379;SDS011;60354;47.798;12.472;2022-11-20T03:46:04;1.40;;;1.10;;
72379;SDS011;60354;47.798;12.472;2022-11-20T03:48:30;1.48;;;1.10;;
72379;SDS011;60354;47.798;12.472;2022-11-20T03:51:09;1.83;;;1.27;;
72379;SDS011;60354;47.798;12.472;2022-11-20T03:53:36;1.83;;;1.30;;
72379;SDS011;60354;47.798;12.472;2022-11-20T03:56:02;2.55;;;1.10;;
72379;SDS011;60354;47.798;12.472;2022-11-20T03:58:28;1.83;;;1.20;;
72379;SDS011;60354;47.798;12.472;2022-11-20T04:00:53;1.10;;;1.00;;
72379;SDS011;60354;47.798;12.472;2022-11-20T04:03:19;1.92;;;1.15;;
72379;SDS011;60354;47.798;12.472;2022-11-20T04:05:44;1.45;;;1.00;;
72379;SDS011;60354;47.798;12.472;2022-11-20T04:08:10;2.03;;;1.30;;
72379;SDS011;60354;47.798;12.472;2022-11-20T04:10:35;2.20;;;1.25;;
72379;SDS011;60354;47.798;12.472;2022-11-20T04:13:01;2.97;;;1.42;;
72379;SDS011;60354;47.798;12.472;2022-11-20T04:15:26;1.58;;;1.30;;
72379;SDS011;60354;47.798;12.472;2022-11-20T04:17:51;2.35;;;1.40;;
72379;SDS011;60354;47.798;12.472;2022-11-20T04:20:18;3.20;;;1.65;;
72379;SDS011;60354;47.798;12.472;2022-11-20T04:22:44;2.45;;;1.40;;
72379;SDS011;60354;47.798;12.472;2022-11-20T04:25:10;2.67;;;1.58;;
72379;SDS011;60354;47.798;12.472;2022-11-20T04:27:35;3.47;;;1.40;;
72379;SDS011;60354;47.798;12.472;2022-11-20T04:30:01;2.30;;;1.50;;
72379;SDS011;60354;47.798;12.472;2022-11-20T04:32:26;1.52;;;1.30;;
72379;SDS011;60354;47.798;12.472;2022-11-20T04:34:52;2.05;;;1.40;;
72379;SDS011;60354;47.798;12.472;2022-11-20T04:37:17;1.75;;;1.30;;
72379;SDS011;60354;47.798;12.472;2022-11-20T04:39:44;2.92;;;1.50;;
72379;SDS011;60354;47.798;12.472;2022-11-20T04:42:09;4.07;;;1.70;;
72379;SDS011;60354;47.798;12.472;2022-11-20T04:45:08;2.40;;;1.50;;
72379;SDS011;60354;47.798;12.472;2022-11-20T04:47:33;1.67;;;1.25;;
72379;SDS011;60354;47.798;12.472;2022-11-20T04:49:59;2.60;;;1.50;;
72379;SDS011;60354;47.798;12.472;2022-11-20T04:52:24;2.92;;;1.77;;
72379;SDS011;60354;47.798;12.472;2022-11-20T04:54:50;2.97;;;1.70;;
72379;SDS011;60354;47.798;12.472;2022-11-20T04:57:17;8.95;;;4.15;;
72379;SDS011;60354;47.798;12.472;2022-11-20T04:59:43;6.43;;;2.97;;
72379;SDS011;60354;47.798;12.472;2022-11-20T05:02:09;6.07;;;3.53;;
72379;SDS011;60354;47.798;12.472;2022-11-20T05:04:35;4.18;;;2.53;;
72379;SDS011;60354;47.798;12.472;2022-11-20T05:07:00;4.18;;;2.50;;
72379;SDS011;60354;47.798;12.472;2022-11-20T05:09:26;2.55;;;1.80;;
72379;SDS011;60354;47.798;12.472;2022-11-20T05:11:51;2.60;;;1.67;;
72379;SDS011;60354;47.798;12.472;2022-11-20T05:14:17;3.65;;;1.50;;
72379;SDS011;60354;47.798;12.472;2022-11-20T05:16:42;2.30;;;1.30;;
72379;SDS011;60354;47.798;12.472;2022-11-20T05:19:08;2.58;;;1.15;;
72379;SDS011;60354;47.798;12.472;2022-11-20T05:21:33;1.70;;;1.00;;
72379;SDS011;60354;47.798;12.472;2022-11-20T05:23:59;3.42;;;1.10;;
72379;SDS011;60354;47.798;12.472;2022-11-20T05:26:24;2.75;;;1.20;;
72379;SDS011;60354;47.798;12.472;2022-11-20T05:28:50;2.60;;;1.20;;
72379;SDS011;60354;47.798;12.472;2022-11-20T05:31:18;1.88;;;1.10;;
72379;SDS011;60354;47.798;12.472;2022-11-20T05:33:44;2.60;;;1.27;;
72379;SDS011;60354;47.798;12.472;2022-11-20T05:36:11;2.35;;;1.30;;
72379;SDS011;60354;47.798;12.472;2022-11-20T05:38:37;2.63;;;1.38;;
72379;SDS011;60354;47.798;12.472;2022-11-20T05:41:16;2.50;;;1.35;;
72379;SDS011;60354;47.798;12.472;2022-11-20T05:43:43;3.53;;;1.27;;
72379;SDS011;60354;47.798;12.472;2022-11-20T05:46:11;3.75;;;1.40;;
72379;SDS011;60354;47.798;12.472;2022-11-20T05:48:38;2.10;;;1.27;;
72379;SDS011;60354;47.798;12.472;2022-11-20T05:51:05;1.63;;;1.40;;
72379;SDS011;60354;47.798;12.472;2022-11-20T05:53:32;2.30;;;1.50;;
72379;SDS011;60354;47.798;12.472;2022-11-20T05:58:29;1.48;;;1.20;;
72379;SDS011;60354;47.798;12.472;2022-11-20T06:01:02;3.03;;;1.40;;
72379;SDS011;60354;47.798;12.472;2022-11-20T06:03:36;1.70;;;1.20;;
72379;SDS011;60354;47.798;12.472;2022-11-20T06:06:02;2.60;;;1.50;;
72379;SDS011;60354;47.798;12.472;2022-11-20T06:08:29;3.65;;;1.50;;
72379;SDS011;60354;47.798;12.472;2022-11-20T06:10:55;1.90;;;1.30;;
72379;SDS011;60354;47.798;12.472;2022-11-20T06:13:21;3.10;;;1.40;;
72379;SDS011;60354;47.798;12.472;2022-11-20T06:15:50;2.65;;;1.35;;
72379;SDS011;60354;47.798;12.472;2022-11-20T06:18:16;4.30;;;1.60;;
72379;SDS011;60354;47.798;12.472;2022-11-20T06:20:42;1.65;;;1.40;;
72379;SDS011;60354;47.798;12.472;2022-11-20T06:23:07;2.60;;;1.63;;
72379;SDS011;60354;47.798;12.472;2022-11-20T06:25:32;1.58;;;1.35;;
72379;SDS011;60354;47.798;12.472;2022-11-20T06:27:58;3.30;;;1.40;;
72379;SDS011;60354;47.798;12.472;2022-11-20T06:30:23;2.47;;;1.30;;
72379;SDS011;60354;47.798;12.472;2022-11-20T06:32:49;2.83;;;1.50;;
72379;SDS011;60354;47.798;12.472;2022-11-20T06:35:14;3.95;;;1.50;;
72379;SDS011;60354;47.798;12.472;2022-11-20T06:37:40;2.13;;;1.35;;
72379;SDS011;60354;47.798;12.472;2022-11-20T06:40:05;1.83;;;1.40;;
72379;SDS011;60354;47.798;12.472;2022-11-20T06:42:32;3.72;;;1.33;;
72379;SDS011;60354;47.798;12.472;2022-11-20T06:44:57;1.55;;;1.27;;
72379;SDS011;60354;47.798;12.472;2022-11-20T06:47:23;1.70;;;1.30;;
72379;SDS011;60354;47.798;12.472;2022-11-20T06:49:48;2.75;;;1.63;;
72379;SDS011;60354;47.798;12.472;2022-11-20T06:52:13;2.17;;;1.45;;
72379;SDS011;60354;47.798;12.472;2022-11-20T06:54:39;2.80;;;1.23;;
72379;SDS011;60354;47.798;12.472;2022-11-20T06:57:04;1.58;;;1.17;;
72379;SDS011;60354;47.798;12.472;2022-11-20T06:59:30;1.98;;;1.50;;
72379;SDS011;60354;47.798;12.472;2022-11-20T07:01:55;2.22;;;1.58;;
72379;SDS011;60354;47.798;12.472;2022-11-20T07:04:21;2.35;;;1.60;;
72379;SDS011;60354;47.798;12.472;2022-11-20T07:06:46;2.70;;;1.60;;
72379;SDS011;60354;47.798;12.472;2022-11-20T07:09:11;4.43;;;1.40;;
72379;SDS011;60354;47.798;12.472;2022-11-20T07:11:37;2.20;;;1.30;;
72379;SDS011;60354;47.798;12.472;2022-11-20T07:14:02;2.08;;;1.30;;
72379;SDS011;60354;47.798;12.472;2022-11-20T07:16:28;2.30;;;1.30;;
72379;SDS011;60354;47.798;12.472;2022-11-20T07:18:53;2.22;;;1.45;;
72379;SDS011;60354;47.798;12.472;2022-11-20T07:21:19;2.20;;;1.38;;
72379;SDS011;60354;47.798;12.472;2022-11-20T07:23:44;1.85;;;1.20;;
72379;SDS011;60354;47.798;12.472;2022-11-20T07:26:10;2.05;;;1.40;;
72379;SDS011;60354;47.798;12.472;2022-11-20T07:28:36;3.65;;;1.83;;
72379;SDS011;60354;47.798;12.472;2022-11-20T07:31:02;2.38;;;1.50;;
72379;SDS011;60354;47.798;12.472;2022-11-20T07:33:28;1.92;;;1.50;;
72379;SDS011;60354;47.798;12.472;2022-11-20T07:35:54;2.33;;;1.55;;
72379;SDS011;60354;47.798;12.472;2022-11-20T07:38:19;2.95;;;1.65;;
72379;SDS011;60354;47.798;12.472;2022-11-20T07:40:45;3.35;;;1.70;;
72379;SDS011;60354;47.798;12.472;2022-11-20T07:43:10;2.13;;;1.40;;
72379;SDS011;60354;47.798;12.472;2022-11-20T07:45:36;2.65;;;1.55;;
72379;SDS011;60354;47.798;12.472;2022-11-20T07:48:01;2.75;;;1.45;;
72379;SDS011;60354;47.798;12.472;2022-11-20T07:50:27;2.60;;;1.52;;
72379;SDS011;60354;47.798;12.472;2022-11-20T07:52:59;2.05;;;1.50;;
72379;SDS011;60354;47.798;12.472;2022-11-20T07:55:25;2.95;;;1.50;;
72379;SDS011;60354;47.798;12.472;2022-11-20T07:57:54;3.80;;;1.80;;
72379;SDS011;60354;47.798;12.472;2022-11-20T08:00:21;3.65;;;1.50;;
72379;SDS011;60354;47.798;12.472;2022-11-20T08:02:46;2.67;;;1.60;;
72379;SDS011;60354;47.798;12.472;2022-11-20T08:05:12;2.92;;;1.73;;
72379;SDS011;60354;47.798;12.472;2022-11-20T08:07:38;2.15;;;1.60;;
72379;SDS011;60354;47.798;12.472;2022-11-20T08:10:04;2.53;;;1.55;;
72379;SDS011;60354;47.798;12.472;2022-11-20T08:12:31;2.92;;;1.60;;
72379;SDS011;60354;47.798;12.472;2022-11-20T08:15:15;2.97;;;1.60;;
72379;SDS011;60354;47.798;12.472;2022-11-20T08:17:40;2.08;;;1.05;;
72379;SDS011;60354;47.798;12.472;2022-11-20T08:20:06;3.00;;;1.25;;
72379;SDS011;60354;47.798;12.472;2022-11-20T08:22:32;2.92;;;1.30;;
72379;SDS011;60354;47.798;12.472;2022-11-20T08:24:57;1.08;;;0.93;;
72379;SDS011;60354;47.798;12.472;2022-11-20T08:27:23;1.90;;;1.10;;
72379;SDS011;60354;47.798;12.472;2022-11-20T08:29:48;1.83;;;0.98;;
72379;SDS011;60354;47.798;12.472;2022-11-20T08:32:13;1.48;;;1.00;;
72379;SDS011;60354;47.798;12.472;2022-11-20T08:34:39;1.88;;;0.90;;
72379;SDS011;60354;47.798;12.472;2022-11-20T08:37:04;1.40;;;0.60;;
72379;SDS011;60354;47.798;12.472;2022-11-20T08:39:30;1.10;;;0.80;;
72379;SDS011;60354;47.798;12.472;2022-11-20T08:41:56;0.70;;;0.60;;
72379;SDS011;60354;47.798;12.472;2022-11-20T08:44:22;2.63;;;0.90;;
72379;SDS011;60354;47.798;12.472;2022-11-20T08:46:47;1.10;;;0.90;;
72379;SDS011;60354;47.798;12.472;2022-11-20T08:49:13;1.52;;;0.98;;
72379;SDS011;60354;47.798;12.472;2022-11-20T08:51:39;0.68;;;0.68;;
72379;SDS011;60354;47.798;12.472;2022-11-20T08:54:05;1.52;;;0.93;;
72379;SDS011;60354;47.798;12.472;2022-11-20T08:56:31;0.98;;;0.70;;
72379;SDS011;60354;47.798;12.472;2022-11-20T08:58:57;1.25;;;0.70;;
72379;SDS011;60354;47.798;12.472;2022-11-20T09:01:24;1.08;;;0.70;;
72379;SDS011;60354;47.798;12.472;2022-11-20T09:03:50;1.75;;;0.95;;
72379;SDS011;60354;47.798;12.472;2022-11-20T09:06:16;1.05;;;0.88;;
72379;SDS011;60354;47.798;12.472;2022-11-20T09:08:41;2.28;;;1.50;;
72379;SDS011;60354;47.798;12.472;2022-11-20T09:11:07;1.00;;;0.70;;
72379;SDS011;60354;47.798;12.472;2022-11-20T09:13:34;1.23;;;1.08;;
72379;SDS011;60354;47.798;12.472;2022-11-20T09:18:30;1.40;;;1.00;;
72379;SDS011;60354;47.798;12.472;2022-11-20T09:21:02;2.38;;;1.05;;
72379;SDS011;60354;47.798;12.472;2022-11-20T09:23:33;1.20;;;1.00;;
72379;SDS011;60354;47.798;12.472;2022-11-20T09:26:09;1.50;;;0.90;;
72379;SDS011;60354;47.798;12.472;2022-11-20T09:28:37;0.60;;;0.55;;
72379;SDS011;60354;47.798;12.472;2022-11-20T09:31:07;1.00;;;0.88;;
72379;SDS011;60354;47.798;12.472;2022-11-20T09:33:34;2.25;;;1.50;;
72379;SDS011;60354;47.798;12.472;2022-11-20T09:36:00;0.90;;;0.70;;
72379;SDS011;60354;47.798;12.472;2022-11-20T09:38:25;0.65;;;0.60;;
72379;SDS011;60354;47.798;12.472;2022-11-20T09:40:54;1.83;;;1.20;;
72379;SDS011;60354;47.798;12.472;2022-11-20T09:43:28;2.08;;;1.00;;
72379;SDS011;60354;47.798;12.472;2022-11-20T09:54:16;1.15;;;0.45;;
72379;SDS011;60354;47.798;12.472;2022-11-20T09:56:48;0.77;;;0.40;;
72379;SDS011;60354;47.798;12.472;2022-11-20T09:59:26;0.88;;;0.60;;
72379;SDS011;60354;47.798;12.472;2022-11-20T10:04:57;3.40;;;1.80;;
72379;SDS011;60354;47.798;12.472;2022-11-20T10:10:13;1.90;;;1.10;;
72379;SDS011;60354;47.798;12.472;2022-11-20T10:21:21;1.08;;;0.50;;
72379;SDS011;60354;47.798;12.472;2022-11-20T10:29:22;0.30;;;0.30;;
72379;SDS011;60354;47.798;12.472;2022-11-20T10:32:00;1.10;;;0.40;;
72379;SDS011;60354;47.798;12.472;2022-11-20T10:37:38;0.45;;;0.40;;
72379;SDS011;60354;47.798;12.472;2022-11-20T10:40:20;0.35;;;0.30;;
72379;SDS011;60354;47.798;12.472;2022-11-20T10:42:57;3.20;;;1.95;;
72379;SDS011;60354;47.798;12.472;2022-11-20T10:50:32;2.10;;;1.13;;
72379;SDS011;60354;47.798;12.472;2022-11-20T10:53:05;2.53;;;1.40;;
72379;SDS011;60354;47.798;12.472;2022-11-20T10:55:50;3.78;;;1.90;;
72379;SDS011;60354;47.798;12.472;2022-11-20T10:58:45;2.63;;;1.20;;
72379;SDS011;60354;47.798;12.472;2022-11-20T11:01:15;2.00;;;1.05;;
72379;SDS011;60354;47.798;12.472;2022-11-20T11:03:43;2.58;;;1.33;;
72379;SDS011;60354;47.798;12.472;2022-11-20T11:08:49;1.95;;;1.00;;
72379;SDS011;60354;47.798;12.472;2022-11-20T11:11:22;5.68;;;1.95;;
72379;SDS011;60354;47.798;12.472;2022-11-20T11:13:53;2.75;;;1.50;;
72379;SDS011;60354;47.798;12.472;2022-11-20T11:16:29;8.43;;;3.33;;
72379;SDS011;60354;47.798;12.472;2022-11-20T11:19:05;2.75;;;1.35;;
72379;SDS011;60354;47.798;12.472;2022-11-20T11:21:45;6.50;;;2.83;;
72379;SDS011;60354;47.798;12.472;2022-11-20T11:24:19;6.75;;;2.60;;
72379;SDS011;60354;47.798;12.472;2022-11-20T11:26:54;2.25;;;1.20;;
72379;SDS011;60354;47.798;12.472;2022-11-20T11:29:22;1.10;;;0.70;;
72379;SDS011;60354;47.798;12.472;2022-11-20T11:31:48;1.25;;;0.90;;
72379;SDS011;60354;47.798;12.472;2022-11-20T11:34:15;1.70;;;1.00;;
72379;SDS011;60354;47.798;12.472;2022-11-20T11:36:42;0.40;;;0.40;;
72379;SDS011;60354;47.798;12.472;2022-11-20T11:39:21;0.70;;;0.50;;
72379;SDS011;60354;47.798;12.472;2022-11-20T11:41:46;0.98;;;0.63;;
72379;SDS011;60354;47.798;12.472;2022-11-20T11:44:17;2.53;;;1.20;;
72379;SDS011;60354;47.798;12.472;2022-11-20T11:47:04;6.38;;;3.63;;
72379;SDS011;60354;47.798;12.472;2022-11-20T11:49:35;5.60;;;3.38;;
72379;SDS011;60354;47.798;12.472;2022-11-20T11:52:22;2.88;;;1.23;;
72379;SDS011;60354;47.798;12.472;2022-11-20T11:54:53;1.25;;;0.70;;
72379;SDS011;60354;47.798;12.472;2022-11-20T11:57:26;0.75;;;0.50;;
72379;SDS011;60354;47.798;12.472;2022-11-20T12:00:13;0.85;;;0.50;;
72379;SDS011;60354;47.798;12.472;2022-11-20T12:05:23;0.50;;;0.35;;
72379;SDS011;60354;47.798;12.472;2022-11-20T12:12:55;0.50;;;0.43;;
72379;SDS011;60354;47.798;12.472;2022-11-20T12:15:30;0.43;;;0.40;;
72379;SDS011;60354;47.798;12.472;2022-11-20T12:17:58;1.17;;;0.90;;
72379;SDS011;60354;47.798;12.472;2022-11-20T12:20:35;0.30;;;0.30;;
72379;SDS011;60354;47.798;12.472;2022-11-20T12:23:30;4.43;;;0.50;;
72379;SDS011;60354;47.798;12.472;2022-11-20T12:26:03;2.95;;;2.10;;
72379;SDS011;60354;47.798;12.472;2022-11-20T12:28:44;0.80;;;0.80;;
72379;SDS011;60354;47.798;12.472;2022-11-20T12:42:08;1.13;;;0.93;;
72379;SDS011;60354;47.798;12.472;2022-11-20T12:48:14;1.63;;;0.80;;
72379;SDS011;60354;47.798;12.472;2022-11-20T13:01:56;7.10;;;2.60;;
72379;SDS011;60354;47.798;12.472;2022-11-20T13:07:23;3.83;;;1.75;;
72379;SDS011;60354;47.798;12.472;2022-11-20T13:09:51;0.82;;;0.63;;
72379;SDS011;60354;47.798;12.472;2022-11-20T13:12:40;0.32;;;0.32;;
72379;SDS011;60354;47.798;12.472;2022-11-20T13:18:03;1.52;;;0.95;;
72379;SDS011;60354;47.798;12.472;2022-11-20T13:20:30;0.30;;;0.30;;
72379;SDS011;60354;47.798;12.472;2022-11-20T13:22:58;0.38;;;0.30;;
72379;SDS011;60354;47.798;12.472;2022-11-20T13:25:25;0.43;;;0.40;;
72379;SDS011;60354;47.798;12.472;2022-11-20T13:28:02;0.70;;;0.40;;
72379;SDS011;60354;47.798;12.472;2022-11-20T13:30:30;0.60;;;0.40;;
72379;SDS011;60354;47.798;12.472;2022-11-20T13:36:27;0.60;;;0.60;;
72379;SDS011;60354;47.798;12.472;2022-11-20T13:38:46;0.45;;;0.40;;
72379;SDS011;60354;47.798;12.472;2022-11-20T13:41:33;0.67;;;0.60;;
72379;SDS011;60354;47.798;12.472;2022-11-20T13:46:40;0.80;;;0.50;;
72379;SDS011;60354;47.798;12.472;2022-11-20T13:49:15;1.42;;;0.60;;
72379;SDS011;60354;47.798;12.472;2022-11-20T13:51:45;1.00;;;0.50;;
72379;SDS011;60354;47.798;12.472;2022-11-20T14:01:56;0.38;;;0.30;;
72379;SDS011;60354;47.798;12.472;2022-11-20T14:04:35;0.70;;;0.47;;
72379;SDS011;60354;47.798;12.472;2022-11-20T14:07:07;0.32;;;0.32;;
72379;SDS011;60354;47.798;12.472;2022-11-20T14:09:34;0.60;;;0.40;;
72379;SDS011;60354;47.798;12.472;2022-11-20T14:12:00;1.00;;;0.47;;
72379;SDS011;60354;47.798;12.472;2022-11-20T14:14:28;1.13;;;0.47;;
72379;SDS011;60354;47.798;12.472;2022-11-20T14:19:53;0.50;;;0.50;;
72379;SDS011;60354;47.798;12.472;2022-11-20T14:22:21;0.55;;;0.30;;
72379;SDS011;60354;47.798;12.472;2022-11-20T14:24:48;0.50;;;0.50;;
72379;SDS011;60354;47.798;12.472;2022-11-20T14:27:25;0.88;;;0.60;;
72379;SDS011;60354;47.798;12.472;2022-11-20T14:29:50;0.93;;;0.60;;
72379;SDS011;60354;47.798;12.472;2022-11-20T14:32:19;0.70;;;0.70;;
72379;SDS011;60354;47.798;12.472;2022-11-20T14:34:51;0.80;;;0.70;;
72379;SDS011;60354;47.798;12.472;2022-11-20T14:37:18;1.33;;;0.70;;
72379;SDS011;60354;47.798;12.472;2022-11-20T14:39:53;0.60;;;0.60;;
72379;SDS011;60354;47.798;12.472;2022-11-20T14:42:24;0.95;;;0.80;;
72379;SDS011;60354;47.798;12.472;2022-11-20T14:44:52;1.90;;;1.00;;
72379;SDS011;60354;47.798;12.472;2022-11-20T14:47:21;0.93;;;0.80;;
72379;SDS011;60354;47.798;12.472;2022-11-20T14:49:50;1.45;;;0.82;;
72379;SDS011;60354;47.798;12.472;2022-11-20T14:52:18;9.40;;;3.92;;
72379;SDS011;60354;47.798;12.472;2022-11-20T14:54:47;37.92;;;14.45;;
72379;SDS011;60354;47.798;12.472;2022-11-20T14:59:48;21.20;;;13.73;;
72379;SDS011;60354;47.798;12.472;2022-11-20T15:02:13;3.10;;;1.35;;
72379;SDS011;60354;47.798;12.472;2022-11-20T15:04:57;4.57;;;3.17;;
72379;SDS011;60354;47.798;12.472;2022-11-20T15:07:34;8.13;;;5.43;;
72379;SDS011;60354;47.798;12.472;2022-11-20T15:10:06;5.57;;;3.00;;
72379;SDS011;60354;47.798;12.472;2022-11-20T15:12:34;5.43;;;3.45;;
72379;SDS011;60354;47.798;12.472;2022-11-20T15:15:03;4.35;;;2.83;;
72379;SDS011;60354;47.798;12.472;2022-11-20T15:17:30;2.97;;;1.90;;
72379;SDS011;60354;47.798;12.472;2022-11-20T15:19:57;4.00;;;2.05;;
72379;SDS011;60354;47.798;12.472;2022-11-20T15:22:23;1.52;;;1.30;;
72379;SDS011;60354;47.798;12.472;2022-11-20T15:24:49;2.63;;;1.48;;
72379;SDS011;60354;47.798;12.472;2022-11-20T15:27:14;1.90;;;1.27;;
72379;SDS011;60354;47.798;12.472;2022-11-20T15:29:41;2.97;;;1.95;;
72379;SDS011;60354;47.798;12.472;2022-11-20T15:32:07;8.30;;;4.57;;
72379;SDS011;60354;47.798;12.472;2022-11-20T15:34:34;6.88;;;3.80;;
72379;SDS011;60354;47.798;12.472;2022-11-20T15:36:59;4.93;;;2.50;;
72379;SDS011;60354;47.798;12.472;2022-11-20T15:39:24;4.05;;;2.20;;
72379;SDS011;60354;47.798;12.472;2022-11-20T15:41:53;1.30;;;0.98;;
72379;SDS011;60354;47.798;12.472;2022-11-20T15:44:18;7.55;;;5.90;;
72379;SDS011;60354;47.798;12.472;2022-11-20T15:46:44;19.85;;;14.40;;
72379;SDS011;60354;47.798;12.472;2022-11-20T15:49:15;14.15;;;9.07;;
72379;SDS011;60354;47.798;12.472;2022-11-20T15:51:44;10.57;;;7.55;;
72379;SDS011;60354;47.798;12.472;2022-11-20T15:54:16;18.55;;;12.02;;
72379;SDS011;60354;47.798;12.472;2022-11-20T15:56:45;21.67;;;15.68;;
72379;SDS011;60354;47.798;12.472;2022-11-20T15:59:11;14.60;;;9.00;;
72379;SDS011;60354;47.798;12.472;2022-11-20T16:01:39;5.28;;;3.63;;
72379;SDS011;60354;47.798;12.472;2022-11-20T16:04:07;2.25;;;1.60;;
72379;SDS011;60354;47.798;12.472;2022-11-20T16:06:36;2.63;;;1.70;;
72379;SDS011;60354;47.798;12.472;2022-11-20T16:09:02;3.42;;;2.08;;
72379;SDS011;60354;47.798;12.472;2022-11-20T16:11:27;9.73;;;6.07;;
72379;SDS011;60354;47.798;12.472;2022-11-20T16:13:53;37.20;;;20.40;;
72379;SDS011;60354;47.798;12.472;2022-11-20T16:16:37;23.98;;;13.63;;
72379;SDS011;60354;47.798;12.472;2022-11-20T16:19:04;22.75;;;13.95;;
72379;SDS011;60354;47.798;12.472;2022-11-20T16:21:30;8.98;;;6.07;;
72379;SDS011;60354;47.798;12.472;2022-11-20T16:23:59;5.28;;;3.25;;
72379;SDS011;60354;47.798;12.472;2022-11-20T16:26:30;3.10;;;1.92;;
72379;SDS011;60354;47.798;12.472;2022-11-20T16:28:59;2.80;;;1.70;;
72379;SDS011;60354;47.798;12.472;2022-11-20T16:31:25;3.90;;;2.50;;
72379;SDS011;60354;47.798;12.472;2022-11-20T16:33:51;3.22;;;1.88;;
72379;SDS011;60354;47.798;12.472;2022-11-20T16:36:18;2.40;;;1.30;;